sensor_id;sensor_type;location;lat;lon;timestamp;pressure;altitude;pressure_sealevel;temperature;humidity
81509;BME280;70930;52.412;13.554;2023-08-17T00:01:34;101578.69;;;20.18;72.34
81509;BME280;70930;52.412;13.554;2023-08-17T00:04:19;101581.44;;;20.11;72.13
81509;BME280;70930;52.412;13.554;2023-08-17T00:07:06;101590.94;;;19.89;72.85
81509;BME280;70930;52.412;13.554;2023-08-17T00:09:51;101589.97;;;20.08;72.45
81509;BME280;70930;52.412;13.554;2023-08-17T00:12:37;101583.03;;;20.19;72.31
81509;BME280;70930;52.412;13.554;2023-08-17T00:15:22;101584.50;;;19.90;72.78
81509;BME280;70930;52.412;13.554;2023-08-17T00:18:07;101573.41;;;20.05;72.46
81509;BME280;70930;52.412;13.554;2023-08-17T00:20:53;101571.94;;;20.09;72.63
81509;BME280;70930;52.412;13.554;2023-08-17T00:23:38;101561.28;;;19.89;72.91
81509;BME280;70930;52.412;13.554;2023-08-17T00:26:24;101562.13;;;19.83;73.44
81509;BME280;70930;52.412;13.554;2023-08-17T00:29:10;101553.50;;;19.68;73.62
81509;BME280;70930;52.412;13.554;2023-08-17T00:31:55;101538.63;;;19.65;73.34
81509;BME280;70930;52.412;13.554;2023-08-17T00:34:41;101535.75;;;19.53;74.11
81509;BME280;70930;52.412;13.554;2023-08-17T00:37:26;101544.44;;;19.62;73.45
81509;BME280;70930;52.412;13.554;2023-08-17T00:40:11;101547.53;;;19.66;73.53
81509;BME280;70930;52.412;13.554;2023-08-17T00:42:57;101552.34;;;19.44;73.79
81509;BME280;70930;52.412;13.554;2023-08-17T00:45:44;101559.38;;;19.45;74.34
81509;BME280;70930;52.412;13.554;2023-08-17T00:48:30;101554.88;;;19.38;74.32
81509;BME280;70930;52.412;13.554;2023-08-17T00:51:16;101550.69;;;19.49;74.26
81509;BME280;70930;52.412;13.554;2023-08-17T00:54:05;101558.84;;;19.29;74.87
81509;BME280;70930;52.412;13.554;2023-08-17T00:56:51;101558.06;;;19.22;75.48
81509;BME280;70930;52.412;13.554;2023-08-17T00:59:37;101561.75;;;19.28;75.16
81509;BME280;70930;52.412;13.554;2023-08-17T01:02:23;101556.81;;;19.18;75.40
81509;BME280;70930;52.412;13.554;2023-08-17T01:05:09;101557.81;;;19.24;74.91
81509;BME280;70930;52.412;13.554;2023-08-17T01:07:54;101555.78;;;19.19;75.18
81509;BME280;70930;52.412;13.554;2023-08-17T01:11:05;101546.88;;;19.19;75.37
81509;BME280;70930;52.412;13.554;2023-08-17T01:14:31;101546.88;;;19.12;75.37
81509;BME280;70930;52.412;13.554;2023-08-17T01:17:43;101548.97;;;19.10;75.46
81509;BME280;70930;52.412;13.554;2023-08-17T01:20:27;101545.47;;;19.03;75.52
81509;BME280;70930;52.412;13.554;2023-08-17T01:23:13;101537.81;;;19.06;75.36
81509;BME280;70930;52.412;13.554;2023-08-17T01:25:59;101534.09;;;19.01;75.15
81509;BME280;70930;52.412;13.554;2023-08-17T01:28:45;101538.41;;;19.02;74.60
81509;BME280;70930;52.412;13.554;2023-08-17T01:31:36;101534.72;;;19.03;74.76
81509;BME280;70930;52.412;13.554;2023-08-17T01:34:26;101528.50;;;18.96;75.17
81509;BME280;70930;52.412;13.554;2023-08-17T01:37:18;101532.44;;;19.06;74.83
81509;BME280;70930;52.412;13.554;2023-08-17T01:40:07;101538.22;;;19.03;75.24
81509;BME280;70930;52.412;13.554;2023-08-17T01:42:53;101543.44;;;18.98;75.32
81509;BME280;70930;52.412;13.554;2023-08-17T01:45:39;101545.31;;;18.84;75.42
81509;BME280;70930;52.412;13.554;2023-08-17T01:48:24;101551.31;;;18.86;75.77
81509;BME280;70930;52.412;13.554;2023-08-17T01:51:11;101544.91;;;18.81;75.63
81509;BME280;70930;52.412;13.554;2023-08-17T01:53:57;101545.13;;;18.79;75.60
81509;BME280;70930;52.412;13.554;2023-08-17T01:56:42;101542.22;;;18.68;75.88
81509;BME280;70930;52.412;13.554;2023-08-17T01:59:27;101557.53;;;18.74;75.84
81509;BME280;70930;52.412;13.554;2023-08-17T02:02:13;101535.59;;;18.70;75.83
81509;BME280;70930;52.412;13.554;2023-08-17T02:04:59;101547.59;;;18.74;75.75
81509;BME280;70930;52.412;13.554;2023-08-17T02:07:45;101545.13;;;18.73;75.72
81509;BME280;70930;52.412;13.554;2023-08-17T02:10:30;101545.34;;;18.71;75.66
81509;BME280;70930;52.412;13.554;2023-08-17T02:13:16;101547.22;;;18.71;75.77
81509;BME280;70930;52.412;13.554;2023-08-17T02:16:01;101544.91;;;18.68;75.82
81509;BME280;70930;52.412;13.554;2023-08-17T02:18:47;101539.75;;;18.59;76.00
81509;BME280;70930;52.412;13.554;2023-08-17T02:21:32;101530.22;;;18.63;75.79
81509;BME280;70930;52.412;13.554;2023-08-17T02:24:18;101536.00;;;18.60;75.91
81509;BME280;70930;52.412;13.554;2023-08-17T02:27:03;101541.59;;;18.59;76.06
81509;BME280;70930;52.412;13.554;2023-08-17T02:29:49;101546.34;;;18.50;76.29
81509;BME280;70930;52.412;13.554;2023-08-17T02:32:34;101540.97;;;18.50;76.09
81509;BME280;70930;52.412;13.554;2023-08-17T02:35:20;101544.69;;;18.49;75.93
81509;BME280;70930;52.412;13.554;2023-08-17T02:38:05;101552.13;;;18.54;75.84
81509;BME280;70930;52.412;13.554;2023-08-17T02:40:50;101543.66;;;18.57;75.66
81509;BME280;70930;52.412;13.554;2023-08-17T02:43:36;101533.72;;;18.51;75.99
81509;BME280;70930;52.412;13.554;2023-08-17T02:46:21;101529.41;;;18.63;75.40
81509;BME280;70930;52.412;13.554;2023-08-17T02:49:07;101527.31;;;18.38;76.21
81509;BME280;70930;52.412;13.554;2023-08-17T02:51:52;101523.78;;;18.58;75.49
81509;BME280;70930;52.412;13.554;2023-08-17T02:54:38;101516.16;;;18.48;75.37
81509;BME280;70930;52.412;13.554;2023-08-17T02:57:24;101507.06;;;18.56;75.32
81509;BME280;70930;52.412;13.554;2023-08-17T03:00:09;101498.94;;;18.62;74.64
81509;BME280;70930;52.412;13.554;2023-08-17T03:02:55;101500.66;;;18.44;75.10
81509;BME280;70930;52.412;13.554;2023-08-17T03:05:40;101510.59;;;18.17;76.04
81509;BME280;70930;52.412;13.554;2023-08-17T03:08:26;101505.41;;;18.15;75.95
81509;BME280;70930;52.412;13.554;2023-08-17T03:11:11;101503.97;;;18.19;75.84
81509;BME280;70930;52.412;13.554;2023-08-17T03:13:57;101510.38;;;18.25;75.83
81509;BME280;70930;52.412;13.554;2023-08-17T03:16:45;101512.66;;;18.34;75.65
81509;BME280;70930;52.412;13.554;2023-08-17T03:19:30;101524.63;;;18.38;75.17
81509;BME280;70930;52.412;13.554;2023-08-17T03:22:16;101528.16;;;18.46;75.19
81509;BME280;70930;52.412;13.554;2023-08-17T03:25:01;101527.09;;;18.47;75.29
81509;BME280;70930;52.412;13.554;2023-08-17T03:27:47;101523.81;;;18.45;75.28
81509;BME280;70930;52.412;13.554;2023-08-17T03:30:33;101524.44;;;18.40;75.38
81509;BME280;70930;52.412;13.554;2023-08-17T03:33:18;101519.69;;;18.49;74.93
81509;BME280;70930;52.412;13.554;2023-08-17T03:36:04;101512.88;;;18.39;75.48
81509;BME280;70930;52.412;13.554;2023-08-17T03:38:50;101515.94;;;18.23;75.77
81509;BME280;70930;52.412;13.554;2023-08-17T03:41:35;101506.88;;;18.24;75.58
81509;BME280;70930;52.412;13.554;2023-08-17T03:44:21;101508.13;;;18.28;75.56
81509;BME280;70930;52.412;13.554;2023-08-17T03:47:07;101515.75;;;18.18;75.63
81509;BME280;70930;52.412;13.554;2023-08-17T03:49:52;101513.50;;;18.28;75.36
81509;BME280;70930;52.412;13.554;2023-08-17T03:52:38;101516.78;;;18.37;74.96
81509;BME280;70930;52.412;13.554;2023-08-17T03:55:23;101510.19;;;18.39;74.97
81509;BME280;70930;52.412;13.554;2023-08-17T03:58:09;101506.84;;;18.37;74.64
81509;BME280;70930;52.412;13.554;2023-08-17T04:00:54;101499.22;;;18.21;74.39
81509;BME280;70930;52.412;13.554;2023-08-17T04:03:39;101493.84;;;18.28;74.02
81509;BME280;70930;52.412;13.554;2023-08-17T04:06:25;101498.78;;;18.31;74.20
81509;BME280;70930;52.412;13.554;2023-08-17T04:09:10;101505.41;;;18.22;74.23
81509;BME280;70930;52.412;13.554;2023-08-17T04:11:56;101495.31;;;18.24;74.57
81509;BME280;70930;52.412;13.554;2023-08-17T04:14:42;101498.19;;;18.29;73.88
81509;BME280;70930;52.412;13.554;2023-08-17T04:17:28;101497.97;;;18.30;73.86
81509;BME280;70930;52.412;13.554;2023-08-17T04:20:13;101490.09;;;18.22;74.11
81509;BME280;70930;52.412;13.554;2023-08-17T04:22:59;101496.75;;;18.20;74.20
81509;BME280;70930;52.412;13.554;2023-08-17T04:25:44;101503.38;;;18.24;73.50
81509;BME280;70930;52.412;13.554;2023-08-17T04:28:30;101505.41;;;18.35;73.21
81509;BME280;70930;52.412;13.554;2023-08-17T04:31:15;101502.53;;;18.43;73.11
81509;BME280;70930;52.412;13.554;2023-08-17T04:34:02;101488.06;;;18.24;72.67
81509;BME280;70930;52.412;13.554;2023-08-17T04:36:48;101502.50;;;18.56;72.23
81509;BME280;70930;52.412;13.554;2023-08-17T04:39:33;101507.47;;;18.33;72.73
81509;BME280;70930;52.412;13.554;2023-08-17T04:42:19;101493.19;;;18.46;72.54
81509;BME280;70930;52.412;13.554;2023-08-17T04:45:07;101496.50;;;18.48;72.45
81509;BME280;70930;52.412;13.554;2023-08-17T04:47:53;101490.47;;;18.65;71.83
81509;BME280;70930;52.412;13.554;2023-08-17T04:50:39;101502.25;;;18.78;70.99
81509;BME280;70930;52.412;13.554;2023-08-17T04:53:24;101498.13;;;18.62;71.67
81509;BME280;70930;52.412;13.554;2023-08-17T04:56:10;101511.16;;;18.85;70.99
81509;BME280;70930;52.412;13.554;2023-08-17T04:58:55;101509.31;;;18.72;71.31
81509;BME280;70930;52.412;13.554;2023-08-17T05:01:43;101513.44;;;18.81;70.77
81509;BME280;70930;52.412;13.554;2023-08-17T05:04:32;101510.31;;;18.91;70.97
81509;BME280;70930;52.412;13.554;2023-08-17T05:07:17;101505.94;;;18.90;70.63
81509;BME280;70930;52.412;13.554;2023-08-17T05:10:03;101512.16;;;18.97;70.41
81509;BME280;70930;52.412;13.554;2023-08-17T05:12:48;101510.91;;;18.93;70.42
81509;BME280;70930;52.412;13.554;2023-08-17T05:15:34;101513.84;;;18.92;69.59
81509;BME280;70930;52.412;13.554;2023-08-17T05:18:19;101503.06;;;18.92;69.52
81509;BME280;70930;52.412;13.554;2023-08-17T05:21:05;101520.19;;;19.10;69.26
81509;BME280;70930;52.412;13.554;2023-08-17T05:23:51;101500.78;;;18.88;69.48
81509;BME280;70930;52.412;13.554;2023-08-17T05:26:37;101508.13;;;19.20;68.37
81509;BME280;70930;52.412;13.554;2023-08-17T05:29:23;101507.38;;;18.99;68.86
81509;BME280;70930;52.412;13.554;2023-08-17T05:32:09;101495.81;;;18.92;69.67
81509;BME280;70930;52.412;13.554;2023-08-17T05:34:54;101510.59;;;19.28;68.88
81509;BME280;70930;52.412;13.554;2023-08-17T05:37:40;101496.16;;;19.16;68.54
81509;BME280;70930;52.412;13.554;2023-08-17T05:40:25;101508.78;;;19.15;68.41
81509;BME280;70930;52.412;13.554;2023-08-17T05:43:11;101507.66;;;19.29;67.67
81509;BME280;70930;52.412;13.554;2023-08-17T05:45:57;101509.84;;;19.14;68.19
81509;BME280;70930;52.412;13.554;2023-08-17T05:48:44;101525.53;;;19.24;68.44
81509;BME280;70930;52.412;13.554;2023-08-17T05:51:32;101507.28;;;19.26;69.10
81509;BME280;70930;52.412;13.554;2023-08-17T05:54:18;101512.78;;;18.99;68.03
81509;BME280;70930;52.412;13.554;2023-08-17T05:57:03;101520.56;;;19.21;68.69
81509;BME280;70930;52.412;13.554;2023-08-17T05:59:49;101534.41;;;19.31;67.84
81509;BME280;70930;52.412;13.554;2023-08-17T06:02:34;101551.13;;;19.84;67.86
81509;BME280;70930;52.412;13.554;2023-08-17T06:05:23;101584.88;;;20.25;66.43
81509;BME280;70930;52.412;13.554;2023-08-17T06:08:11;101588.75;;;20.36;66.08
81509;BME280;70930;52.412;13.554;2023-08-17T06:10:57;101617.69;;;20.54;65.17
81509;BME280;70930;52.412;13.554;2023-08-17T06:13:42;101607.75;;;20.48;64.51
81509;BME280;70930;52.412;13.554;2023-08-17T06:16:27;101606.06;;;20.47;64.77
81509;BME280;70930;52.412;13.554;2023-08-17T06:19:13;101605.53;;;20.63;65.08
81509;BME280;70930;52.412;13.554;2023-08-17T06:21:58;101596.91;;;20.79;64.32
81509;BME280;70930;52.412;13.554;2023-08-17T06:24:44;101590.03;;;20.83;64.92
81509;BME280;70930;52.412;13.554;2023-08-17T06:27:29;101576.69;;;21.07;63.03
81509;BME280;70930;52.412;13.554;2023-08-17T06:30:14;101569.50;;;21.19;62.50
81509;BME280;70930;52.412;13.554;2023-08-17T06:33:01;101569.38;;;21.26;63.74
81509;BME280;70930;52.412;13.554;2023-08-17T06:35:46;101570.81;;;22.07;63.58
81509;BME280;70930;52.412;13.554;2023-08-17T06:38:32;101553.50;;;22.85;62.19
81509;BME280;70930;52.412;13.554;2023-08-17T06:41:17;101567.78;;;23.44;58.77
81509;BME280;70930;52.412;13.554;2023-08-17T06:44:03;101551.66;;;23.95;55.38
81509;BME280;70930;52.412;13.554;2023-08-17T06:46:49;101563.66;;;23.42;54.54
81509;BME280;70930;52.412;13.554;2023-08-17T06:49:35;101569.34;;;23.69;54.67
81509;BME280;70930;52.412;13.554;2023-08-17T06:52:20;101587.75;;;22.44;57.77
81509;BME280;70930;52.412;13.554;2023-08-17T06:55:06;101583.97;;;23.27;57.38
81509;BME280;70930;52.412;13.554;2023-08-17T06:57:51;101579.69;;;22.91;56.81
81509;BME280;70930;52.412;13.554;2023-08-17T07:00:37;101576.34;;;22.66;58.23
81509;BME280;70930;52.412;13.554;2023-08-17T07:03:25;101579.50;;;22.51;58.38
81509;BME280;70930;52.412;13.554;2023-08-17T07:06:11;101581.72;;;22.30;59.38
81509;BME280;70930;52.412;13.554;2023-08-17T07:08:56;101580.66;;;21.60;60.66
81509;BME280;70930;52.412;13.554;2023-08-17T07:11:41;101573.94;;;21.50;61.30
81509;BME280;70930;52.412;13.554;2023-08-17T07:14:27;101579.09;;;21.33;61.32
81509;BME280;70930;52.412;13.554;2023-08-17T07:17:13;101586.50;;;21.20;62.25
81509;BME280;70930;52.412;13.554;2023-08-17T07:19:58;101579.53;;;21.30;61.68
81509;BME280;70930;52.412;13.554;2023-08-17T07:22:44;101579.53;;;21.12;62.42
81509;BME280;70930;52.412;13.554;2023-08-17T07:25:30;101574.06;;;21.37;63.17
81509;BME280;70930;52.412;13.554;2023-08-17T07:28:15;101577.66;;;21.13;63.02
81509;BME280;70930;52.412;13.554;2023-08-17T07:31:00;101585.53;;;21.14;62.99
81509;BME280;70930;52.412;13.554;2023-08-17T07:33:46;101584.41;;;21.22;62.85
81509;BME280;70930;52.412;13.554;2023-08-17T07:36:32;101581.53;;;20.80;64.34
81509;BME280;70930;52.412;13.554;2023-08-17T07:39:17;101574.13;;;20.94;64.45
81509;BME280;70930;52.412;13.554;2023-08-17T07:42:04;101584.16;;;20.87;64.59
81509;BME280;70930;52.412;13.554;2023-08-17T07:44:49;101579.69;;;21.17;64.16
81509;BME280;70930;52.412;13.554;2023-08-17T07:47:35;101572.91;;;20.90;63.07
81509;BME280;70930;52.412;13.554;2023-08-17T07:50:22;101573.94;;;20.45;64.68
81509;BME280;70930;52.412;13.554;2023-08-17T07:53:08;101572.44;;;20.74;64.61
81509;BME280;70930;52.412;13.554;2023-08-17T07:55:53;101575.69;;;20.83;65.11
81509;BME280;70930;52.412;13.554;2023-08-17T07:58:39;101568.25;;;20.78;64.32
81509;BME280;70930;52.412;13.554;2023-08-17T08:01:24;101563.84;;;20.34;65.92
81509;BME280;70930;52.412;13.554;2023-08-17T08:04:10;101560.41;;;20.95;64.80
81509;BME280;70930;52.412;13.554;2023-08-17T08:06:55;101554.72;;;21.03;63.82
81509;BME280;70930;52.412;13.554;2023-08-17T08:09:40;101561.44;;;21.49;63.00
81509;BME280;70930;52.412;13.554;2023-08-17T08:12:26;101554.09;;;21.20;63.98
81509;BME280;70930;52.412;13.554;2023-08-17T08:15:11;101559.78;;;20.93;64.66
81509;BME280;70930;52.412;13.554;2023-08-17T08:17:57;101554.28;;;21.06;65.19
81509;BME280;70930;52.412;13.554;2023-08-17T08:20:51;101536.25;;;21.00;64.48
81509;BME280;70930;52.412;13.554;2023-08-17T08:23:39;101544.66;;;21.11;64.66
81509;BME280;70930;52.412;13.554;2023-08-17T08:26:30;101546.66;;;20.78;64.71
81509;BME280;70930;52.412;13.554;2023-08-17T08:29:19;101537.44;;;20.68;65.39
81509;BME280;70930;52.412;13.554;2023-08-17T08:32:10;101542.56;;;20.51;65.60
81509;BME280;70930;52.412;13.554;2023-08-17T08:35:10;101543.44;;;20.88;66.00
81509;BME280;70930;52.412;13.554;2023-08-17T08:37:59;101525.81;;;21.22;64.12
81509;BME280;70930;52.412;13.554;2023-08-17T08:40:47;101529.41;;;20.98;65.10
81509;BME280;70930;52.412;13.554;2023-08-17T08:43:33;101528.91;;;21.07;64.68
81509;BME280;70930;52.412;13.554;2023-08-17T08:46:20;101519.44;;;21.35;65.36
81509;BME280;70930;52.412;13.554;2023-08-17T08:49:16;101509.00;;;21.69;64.07
81509;BME280;70930;52.412;13.554;2023-08-17T08:52:07;101504.44;;;21.81;63.82
81509;BME280;70930;52.412;13.554;2023-08-17T08:54:58;101513.06;;;21.90;64.20
81509;BME280;70930;52.412;13.554;2023-08-17T08:57:49;101509.91;;;22.04;63.97
81509;BME280;70930;52.412;13.554;2023-08-17T09:00:40;101496.13;;;21.83;64.38
81509;BME280;70930;52.412;13.554;2023-08-17T09:03:30;101492.00;;;21.92;63.48
81509;BME280;70930;52.412;13.554;2023-08-17T09:06:18;101496.78;;;21.66;64.80
81509;BME280;70930;52.412;13.554;2023-08-17T09:09:07;101471.25;;;21.50;64.53
81509;BME280;70930;52.412;13.554;2023-08-17T09:11:54;101486.13;;;21.23;65.54
81509;BME280;70930;52.412;13.554;2023-08-17T09:14:46;101487.47;;;21.32;66.18
81509;BME280;70930;52.412;13.554;2023-08-17T09:17:34;101497.84;;;21.35;66.13
81509;BME280;70930;52.412;13.554;2023-08-17T09:23:26;101506.91;;;21.71;64.97
81509;BME280;70930;52.412;13.554;2023-08-17T09:26:12;101510.72;;;21.51;65.83
81509;BME280;70930;52.412;13.554;2023-08-17T09:31:26;101507.13;;;21.39;66.09
81509;BME280;70930;52.412;13.554;2023-08-17T09:34:11;101507.09;;;21.58;65.64
81509;BME280;70930;52.412;13.554;2023-08-17T09:37:02;101498.78;;;21.71;65.20
81509;BME280;70930;52.412;13.554;2023-08-17T09:39:48;101503.28;;;21.89;64.69
81509;BME280;70930;52.412;13.554;2023-08-17T09:42:38;101497.03;;;22.18;65.11
81509;BME280;70930;52.412;13.554;2023-08-17T09:45:23;101491.63;;;22.30;63.57
81509;BME280;70930;52.412;13.554;2023-08-17T09:48:09;101493.63;;;22.23;64.30
81509;BME280;70930;52.412;13.554;2023-08-17T09:50:56;101485.84;;;22.38;63.91
81509;BME280;70930;52.412;13.554;2023-08-17T09:53:43;101477.50;;;22.40;64.14
81509;BME280;70930;52.412;13.554;2023-08-17T09:56:28;101482.31;;;22.61;63.42
81509;BME280;70930;52.412;13.554;2023-08-17T09:59:14;101485.28;;;22.48;63.74
81509;BME280;70930;52.412;13.554;2023-08-17T10:02:00;101487.03;;;22.54;63.68
81509;BME280;70930;52.412;13.554;2023-08-17T10:04:53;101484.88;;;22.79;63.93
81509;BME280;70930;52.412;13.554;2023-08-17T10:07:43;101474.66;;;22.58;63.82
81509;BME280;70930;52.412;13.554;2023-08-17T10:10:32;101480.19;;;22.51;64.39
81509;BME280;70930;52.412;13.554;2023-08-17T10:16:26;101481.94;;;22.81;64.61
81509;BME280;70930;52.412;13.554;2023-08-17T10:19:25;101476.13;;;22.89;64.32
81509;BME280;70930;52.412;13.554;2023-08-17T10:25:23;101476.63;;;22.86;64.51
81509;BME280;70930;52.412;13.554;2023-08-17T10:28:10;101478.63;;;22.67;66.14
81509;BME280;70930;52.412;13.554;2023-08-17T10:30:56;101470.75;;;22.77;65.30
81509;BME280;70930;52.412;13.554;2023-08-17T10:33:42;101477.38;;;22.46;66.15
81509;BME280;70930;52.412;13.554;2023-08-17T10:36:31;101462.97;;;22.93;64.90
81509;BME280;70930;52.412;13.554;2023-08-17T10:39:21;101468.13;;;22.83;65.20
81509;BME280;70930;52.412;13.554;2023-08-17T10:42:07;101473.19;;;22.79;65.19
81509;BME280;70930;52.412;13.554;2023-08-17T10:44:52;101476.97;;;23.01;64.41
81509;BME280;70930;52.412;13.554;2023-08-17T10:47:38;101466.44;;;23.17;63.83
81509;BME280;70930;52.412;13.554;2023-08-17T10:50:24;101459.59;;;23.14;65.22
81509;BME280;70930;52.412;13.554;2023-08-17T10:53:12;101455.16;;;23.08;65.93
81509;BME280;70930;52.412;13.554;2023-08-17T10:56:00;101458.19;;;23.40;65.73
81509;BME280;70930;52.412;13.554;2023-08-17T10:58:45;101457.81;;;23.94;63.16
81509;BME280;70930;52.412;13.554;2023-08-17T11:01:35;101457.94;;;23.70;63.72
81509;BME280;70930;52.412;13.554;2023-08-17T11:04:21;101463.31;;;23.53;63.43
81509;BME280;70930;52.412;13.554;2023-08-17T11:07:13;101444.13;;;23.72;63.36
81509;BME280;70930;52.412;13.554;2023-08-17T11:13:01;101450.16;;;23.74;63.36
81509;BME280;70930;52.412;13.554;2023-08-17T11:15:47;101457.38;;;23.85;63.66
81509;BME280;70930;52.412;13.554;2023-08-17T11:18:34;101452.38;;;23.94;63.51
81509;BME280;70930;52.412;13.554;2023-08-17T11:21:19;101447.31;;;24.19;62.50
81509;BME280;70930;52.412;13.554;2023-08-17T11:24:05;101450.56;;;24.55;62.23
81509;BME280;70930;52.412;13.554;2023-08-17T11:26:54;101461.63;;;24.48;59.86
81509;BME280;70930;52.412;13.554;2023-08-17T11:29:40;101447.66;;;24.23;61.55
81509;BME280;70930;52.412;13.554;2023-08-17T11:32:26;101462.25;;;24.56;60.91
81509;BME280;70930;52.412;13.554;2023-08-17T11:35:11;101449.75;;;24.55;60.88
81509;BME280;70930;52.412;13.554;2023-08-17T11:37:57;101460.41;;;24.39;61.37
81509;BME280;70930;52.412;13.554;2023-08-17T11:40:42;101451.00;;;24.91;59.48
81509;BME280;70930;52.412;13.554;2023-08-17T11:43:28;101452.34;;;24.44;61.56
81509;BME280;70930;52.412;13.554;2023-08-17T11:46:15;101449.75;;;24.98;60.36
81509;BME280;70930;52.412;13.554;2023-08-17T11:49:00;101436.56;;;24.63;61.27
81509;BME280;70930;52.412;13.554;2023-08-17T11:51:45;101443.69;;;24.69;60.83
81509;BME280;70930;52.412;13.554;2023-08-17T11:54:32;101443.63;;;24.86;61.35
81509;BME280;70930;52.412;13.554;2023-08-17T11:57:18;101446.25;;;25.03;60.41
81509;BME280;70930;52.412;13.554;2023-08-17T12:00:05;101446.94;;;24.88;59.65
81509;BME280;70930;52.412;13.554;2023-08-17T12:02:57;101448.31;;;25.13;60.46
81509;BME280;70930;52.412;13.554;2023-08-17T12:05:46;101446.56;;;25.56;59.40
81509;BME280;70930;52.412;13.554;2023-08-17T12:08:31;101450.06;;;25.51;58.77
81509;BME280;70930;52.412;13.554;2023-08-17T12:11:17;101443.16;;;25.70;58.75
81509;BME280;70930;52.412;13.554;2023-08-17T12:14:12;101439.09;;;26.05;56.85
81509;BME280;70930;52.412;13.554;2023-08-17T12:16:57;101432.13;;;26.19;56.43
81509;BME280;70930;52.412;13.554;2023-08-17T12:19:43;101436.00;;;25.91;57.55
81509;BME280;70930;52.412;13.554;2023-08-17T12:22:29;101440.75;;;26.06;57.21
81509;BME280;70930;52.412;13.554;2023-08-17T12:25:15;101435.50;;;25.94;57.75
81509;BME280;70930;52.412;13.554;2023-08-17T12:28:00;101437.03;;;26.17;55.99
81509;BME280;70930;52.412;13.554;2023-08-17T12:30:46;101436.06;;;25.69;58.16
81509;BME280;70930;52.412;13.554;2023-08-17T12:33:32;101432.28;;;25.70;58.15
81509;BME280;70930;52.412;13.554;2023-08-17T12:36:17;101430.38;;;26.03;58.14
81509;BME280;70930;52.412;13.554;2023-08-17T12:39:04;101422.03;;;26.62;56.92
81509;BME280;70930;52.412;13.554;2023-08-17T12:41:50;101423.94;;;26.72;56.80
81509;BME280;70930;52.412;13.554;2023-08-17T12:44:36;101418.81;;;26.81;54.80
81509;BME280;70930;52.412;13.554;2023-08-17T12:47:21;101410.78;;;27.37;54.26
81509;BME280;70930;52.412;13.554;2023-08-17T12:50:07;101408.88;;;27.37;54.60
81509;BME280;70930;52.412;13.554;2023-08-17T12:52:53;101397.16;;;27.78;52.51
81509;BME280;70930;52.412;13.554;2023-08-17T12:55:38;101401.75;;;28.13;50.66
81509;BME280;70930;52.412;13.554;2023-08-17T12:58:24;101398.22;;;27.31;54.12
81509;BME280;70930;52.412;13.554;2023-08-17T13:01:09;101393.72;;;28.57;54.43
81509;BME280;70930;52.412;13.554;2023-08-17T13:03:55;101397.88;;;28.29;51.53
81509;BME280;70930;52.412;13.554;2023-08-17T13:06:40;101393.03;;;27.14;53.93
81509;BME280;70930;52.412;13.554;2023-08-17T13:09:25;101391.44;;;27.28;53.94
81509;BME280;70930;52.412;13.554;2023-08-17T13:12:11;101396.50;;;26.94;55.98
81509;BME280;70930;52.412;13.554;2023-08-17T13:14:56;101390.78;;;26.90;56.38
81509;BME280;70930;52.412;13.554;2023-08-17T13:17:41;101391.16;;;27.20;54.94
81509;BME280;70930;52.412;13.554;2023-08-17T13:20:27;101390.88;;;27.72;53.24
81509;BME280;70930;52.412;13.554;2023-08-17T13:23:12;101387.34;;;27.51;53.64
81509;BME280;70930;52.412;13.554;2023-08-17T13:25:58;101393.81;;;27.04;54.15
81509;BME280;70930;52.412;13.554;2023-08-17T13:28:44;101387.00;;;27.02;54.88
81509;BME280;70930;52.412;13.554;2023-08-17T13:31:29;101383.16;;;27.03;54.83
81509;BME280;70930;52.412;13.554;2023-08-17T13:34:15;101380.78;;;27.42;54.01
81509;BME280;70930;52.412;13.554;2023-08-17T13:37:00;101371.50;;;27.43;52.54
81509;BME280;70930;52.412;13.554;2023-08-17T13:39:48;101372.88;;;27.30;53.73
81509;BME280;70930;52.412;13.554;2023-08-17T13:42:34;101367.00;;;26.65;55.36
81509;BME280;70930;52.412;13.554;2023-08-17T13:57:58;101363.88;;;27.35;54.24
81509;BME280;70930;52.412;13.554;2023-08-17T14:01:33;101360.59;;;27.53;53.13
81509;BME280;70930;52.412;13.554;2023-08-17T14:14:50;101343.88;;;28.06;52.41
81509;BME280;70930;52.412;13.554;2023-08-17T14:18:15;101339.06;;;27.52;52.71
81509;BME280;70930;52.412;13.554;2023-08-17T14:28:39;101310.97;;;27.26;53.79
81509;BME280;70930;52.412;13.554;2023-08-17T14:32:00;101303.03;;;27.04;54.21
81509;BME280;70930;52.412;13.554;2023-08-17T14:34:48;101303.56;;;27.62;53.61
81509;BME280;70930;52.412;13.554;2023-08-17T14:37:35;101309.34;;;27.55;53.96
81509;BME280;70930;52.412;13.554;2023-08-17T14:40:20;101306.28;;;27.62;53.90
81509;BME280;70930;52.412;13.554;2023-08-17T16:40:30;101311.69;;;25.22;61.96
81509;BME280;70930;52.412;13.554;2023-08-17T16:43:15;101307.16;;;25.33;61.60
81509;BME280;70930;52.412;13.554;2023-08-17T16:46:01;101305.34;;;25.44;61.48
81509;BME280;70930;52.412;13.554;2023-08-17T16:48:46;101314.34;;;25.50;61.91
81509;BME280;70930;52.412;13.554;2023-08-17T16:51:32;101310.47;;;25.40;61.80
81509;BME280;70930;52.412;13.554;2023-08-17T16:54:20;101304.25;;;25.45;61.66
81509;BME280;70930;52.412;13.554;2023-08-17T16:57:06;101302.06;;;25.42;61.59
81509;BME280;70930;52.412;13.554;2023-08-17T16:59:51;101315.59;;;25.32;61.78
81509;BME280;70930;52.412;13.554;2023-08-17T17:02:36;101311.56;;;25.39;61.91
81509;BME280;70930;52.412;13.554;2023-08-17T17:05:22;101309.66;;;25.40;61.96